Accueil
METAR-TAF:

METAR-TAF

Aéroports :

Aéroport international de Shanghai-Pudong

Shanghai-Pudong, Chine

latitude: 31-07N, longitude: 121-46E, altitude: 4 m

Observation

Le bulletin a été fait il y a 12 minutes, à 18:00 UTC
Vent 12 kt de nord/nord-est
Température 24°C
Humidité 89%
Pression 1002 hPa
Visibilité 10 km ou plus
Nuages fragmentés à une hauteur de 800 ft
Ciel couvert à une hauteur de 2300 ft

METAR: ZSPD 191800Z 03006MPS 9999 BKN008 OVC023 24/22 Q1002 NOSIG

Heure: 02:12 (18:12 UTC)

Prévision

Le bulletin a été fait il y a 2 heures et 48 minutes, à 15:24 UTC
Prévision valable du 19 à 18 UTC au 20 à 18 UTC
Vent 8 kt de nord-est
Visibilité: 6000 m
Nuages fragmentés à une hauteur de 700 ft
Ciel couvert à une hauteur de 3300 ft
Evoluant progressivement
du 20 à 01 UTC au 20 à 02 UTC
Nuages fragmentés à une hauteur de 1100 ft

TAF: ZSPD 191524Z 1918/2018 05004MPS 6000 BKN007 OVC033 TX26/2006Z TN22/1921Z BECMG 2001/2002 BKN011

Observations et prévisions météorologiques de plus de 4000 aéroports (messages METAR et TAF).

Les stations disponibles sont représentées par des disques jaunes et rouges sur la carte.

Passer la souris dessus pour voir le nom de la station.

Cliquer dessus pour voir les observations et prévisions météorologiques.

Pour changer de carte: cliquez sur les boutons verts avec une croix noire pour zoomer, sur le bouton vert avec un tiret pour effectuer un zoom arrière, ou sur les flèches vertes pour les cartes adjacentes.


METAR-TAF: